Time;durP1;ratioP1;P1;durP2;ratioP2;P2;SDS_P1;SDS_P2;PMS_P1;PMS_P2;Temp;Humidity;BMP_temperature;BMP_pressure;BME280_temperature;BME280_humidity;BME280_pressure;Samples;Min_cycle;Max_cycle;Signal;HPM_P1;HPM_P2
2024/04/10 00:01:06;;;;;;;;;;;8.30;99.90;;;;;;5425588;26;19932;-67
2024/04/10 00:03:31;;;;;;;;;;;8.20;99.90;;;;;;5412277;26;19994;-67
2024/04/10 00:06:03;;;;;;;;;;;8.30;99.90;;;;;;5446141;26;20782;-67
2024/04/10 00:08:30;;;;;;;;;;;8.30;99.90;;;;;;5447052;26;19925;-67
2024/04/10 00:10:55;;;;;;;;;;;8.30;99.90;;;;;;5416445;26;20423;-67
2024/04/10 00:13:21;;;;;;;;;;;8.20;99.90;;;;;;5432327;26;19932;-67
2024/04/10 00:16:00;;;;;;;;;;;8.20;99.90;;;;;;5447125;26;20353;-67
2024/04/10 00:18:25;;;;;;;;;;;8.20;99.90;;;;;;5445337;26;19932;-67
2024/04/10 00:20:51;;;;;;;;;;;8.00;99.90;;;;;;5446181;26;19949;-67
2024/04/10 00:23:18;;;;;;;;;;;8.00;99.90;;;;;;5428957;26;19925;-67
2024/04/10 00:25:53;;;;;;;;;;;8.00;99.90;;;;;;5410840;26;19937;-67
2024/04/10 00:28:19;;;;;;;;;;;7.90;99.90;;;;;;5416350;26;19994;-67
2024/04/10 00:30:44;;;;;;;;;;;7.90;99.90;;;;;;5410482;26;20653;-67
2024/04/10 00:33:10;;;;;;;;;;;7.90;99.90;;;;;;5429559;26;20238;-67
2024/04/10 00:35:36;;;;;;;;;;;7.90;99.90;;;;;;5446895;26;19924;-67
2024/04/10 00:38:01;;;;;;;;;;;7.80;99.90;;;;;;5432845;26;20717;-67
2024/04/10 00:40:27;;;;;;;;;;;7.70;99.90;;;;;;5447530;26;20362;-67
2024/04/10 00:42:52;;;;;;;;;;;7.70;99.90;;;;;;5446414;26;19962;-66
2024/04/10 00:45:18;;;;;;;;;;;7.70;99.90;;;;;;5446183;26;20251;-67
2024/04/10 00:47:43;;;;;;;;;;;7.70;99.90;;;;;;5440836;26;19959;-67
2024/04/10 00:50:09;;;;;;;;;;;7.70;99.90;;;;;;5378405;26;20433;-67
2024/04/10 00:52:35;;;;;;;;;;;7.60;99.90;;;;;;5414996;26;20947;-67
2024/04/10 00:55:00;;;;;;;;;;;7.60;99.90;;;;;;5410266;26;19925;-67
2024/04/10 00:57:28;;;;;;;;;;;7.60;99.90;;;;;;5432350;26;19932;-67
2024/04/10 00:59:53;;;;;;;;;;;7.60;99.90;;;;;;5446113;26;19993;-67
2024/04/10 01:02:19;;;;;;;;;;;7.60;99.90;;;;;;5444615;26;19936;-67
2024/04/10 01:04:44;;;;;;;;;;;7.50;99.90;;;;;;5429221;26;20017;-67
2024/04/10 01:07:10;;;;;;;;;;;7.50;99.90;;;;;;5407969;26;19928;-67
2024/04/10 01:09:36;;;;;;;;;;;7.50;99.90;;;;;;5432226;26;19926;-67
2024/04/10 01:12:03;;;;;;;;;;;7.50;99.90;;;;;;5411658;26;19924;-66
2024/04/10 01:14:28;;;;;;;;;;;7.50;99.90;;;;;;5423492;26;19993;-66
2024/04/10 01:16:54;;;;;;;;;;;7.50;99.90;;;;;;5445569;26;20331;-66
2024/04/10 01:19:19;;;;;;;;;;;7.50;99.90;;;;;;5444771;26;19932;-66
2024/04/10 01:21:46;;;;;;;;;;;7.60;99.90;;;;;;5445126;26;20329;-67
2024/04/10 01:24:11;;;;;;;;;;;7.60;99.90;;;;;;5405757;26;19950;-67
2024/04/10 01:26:37;;;;;;;;;;;7.50;99.90;;;;;;5435186;26;19931;-67
2024/04/10 01:29:02;;;;;;;;;;;7.60;99.90;;;;;;5446889;26;19925;-68
2024/04/10 01:31:30;;;;;;;;;;;7.70;99.90;;;;;;5430709;26;20424;-67
2024/04/10 01:33:58;;;;;;;;;;;7.80;99.90;;;;;;5412749;26;19924;-67
2024/04/10 01:36:24;;;;;;;;;;;7.90;99.90;;;;;;5429259;26;19932;-67
2024/04/10 01:38:50;;;;;;;;;;;7.90;99.90;;;;;;5448486;26;19932;-67
2024/04/10 01:41:15;;;;;;;;;;;7.90;99.90;;;;;;5446999;26;19932;-68
2024/04/10 01:43:41;;;;;;;;;;;8.00;99.90;;;;;;5447815;26;19924;-68
2024/04/10 01:46:06;;;;;;;;;;;8.00;99.90;;;;;;5414077;26;19931;-68
2024/04/10 01:48:32;;;;;;;;;;;8.00;99.90;;;;;;5414817;26;19924;-68
2024/04/10 01:50:57;;;;;;;;;;;8.00;99.90;;;;;;5404752;26;19993;-68
2024/04/10 01:53:23;;;;;;;;;;;8.00;99.90;;;;;;5428543;26;19924;-68
2024/04/10 01:55:50;;;;;;;;;;;8.00;99.90;;;;;;5446620;26;20690;-68
2024/04/10 01:58:15;;;;;;;;;;;8.10;99.90;;;;;;5445311;26;19925;-68
2024/04/10 02:00:41;;;;;;;;;;;8.20;99.90;;;;;;5447215;26;19966;-68
2024/04/10 02:03:06;;;;;;;;;;;8.20;99.90;;;;;;5443387;26;19924;-68
2024/04/10 02:05:32;;;;;;;;;;;8.20;99.90;;;;;;5434872;26;20030;-68
2024/04/10 02:07:57;;;;;;;;;;;8.30;99.90;;;;;;5446706;26;19925;-68
2024/04/10 02:10:23;;;;;;;;;;;8.30;99.90;;;;;;5445476;26;20402;-68
2024/04/10 02:12:48;;;;;;;;;;;8.20;99.90;;;;;;5414426;26;19924;-68
2024/04/10 02:15:14;;;;;;;;;;;8.20;99.90;;;;;;5445552;26;20346;-68
2024/04/10 02:17:39;;;;;;;;;;;8.20;99.90;;;;;;5447005;26;19940;-68
2024/04/10 02:20:06;;;;;;;;;;;8.20;99.90;;;;;;5413978;26;19931;-68
2024/04/10 02:22:31;;;;;;;;;;;8.10;99.90;;;;;;5446916;26;19925;-67
2024/04/10 02:24:57;;;;;;;;;;;8.00;99.90;;;;;;5439177;26;19925;-67
2024/04/10 02:27:22;;;;;;;;;;;8.00;99.90;;;;;;5414119;26;21739;-68
2024/04/10 02:29:48;;;;;;;;;;;7.90;99.90;;;;;;5449139;26;19925;-68
2024/04/10 02:32:14;;;;;;;;;;;7.90;99.90;;;;;;5450537;26;20638;-68
2024/04/10 02:34:40;;;;;;;;;;;7.90;99.90;;;;;;5449151;26;19931;-68
2024/04/10 02:37:05;;;;;;;;;;;8.00;99.90;;;;;;5449458;26;19925;-67
2024/04/10 02:39:31;;;;;;;;;;;8.00;99.90;;;;;;5448564;26;19947;-68
2024/04/10 02:41:56;;;;;;;;;;;7.90;99.90;;;;;;5449073;26;20704;-68
2024/04/10 02:44:22;;;;;;;;;;;7.80;99.90;;;;;;5443034;26;19925;-67
2024/04/10 02:46:48;;;;;;;;;;;7.70;99.90;;;;;;5449390;26;19925;-68
2024/04/10 02:49:13;;;;;;;;;;;7.60;99.90;;;;;;5448386;26;19931;-67
2024/04/10 02:51:38;;;;;;;;;;;7.60;99.90;;;;;;5449776;26;19931;-68
2024/04/10 02:54:04;;;;;;;;;;;7.50;99.90;;;;;;5448544;26;19924;-68
2024/04/10 02:56:29;;;;;;;;;;;7.50;99.90;;;;;;5450332;26;20700;-68
2024/04/10 02:58:55;;;;;;;;;;;7.50;99.90;;;;;;5447337;26;19952;-68
2024/04/10 03:01:20;;;;;;;;;;;7.40;99.90;;;;;;5450514;26;20121;-68
2024/04/10 03:03:46;;;;;;;;;;;7.40;99.90;;;;;;5431817;26;19925;-67
2024/04/10 03:06:12;;;;;;;;;;;7.50;99.90;;;;;;5450096;26;19924;-68
2024/04/10 03:08:37;;;;;;;;;;;7.70;99.90;;;;;;5448169;26;19925;-68
2024/04/10 03:11:05;;;;;;;;;;;7.70;99.90;;;;;;5440007;26;20664;-67
2024/04/10 03:13:33;;;;;;;;;;;7.70;99.90;;;;;;5413542;26;19925;-67
2024/04/10 03:15:59;;;;;;;;;;;7.70;99.90;;;;;;5446258;26;19924;-67
2024/04/10 03:18:24;;;;;;;;;;;7.70;99.90;;;;;;5449532;26;19928;-68
2024/04/10 03:20:50;;;;;;;;;;;7.70;99.90;;;;;;5417592;26;20662;-68
2024/04/10 03:23:16;;;;;;;;;;;7.80;99.90;;;;;;5413813;26;19925;-68
2024/04/10 03:25:41;;;;;;;;;;;7.80;99.90;;;;;;5414283;26;19998;-68
2024/04/10 03:28:07;;;;;;;;;;;7.60;99.90;;;;;;5414769;26;19952;-67
2024/04/10 03:30:32;;;;;;;;;;;7.60;99.90;;;;;;5413960;26;19933;-67
2024/04/10 03:32:58;;;;;;;;;;;7.70;99.90;;;;;;5432898;26;19924;-67
2024/04/10 03:35:24;;;;;;;;;;;7.60;99.90;;;;;;5449273;26;19924;-68
2024/04/10 03:37:50;;;;;;;;;;;7.60;99.90;;;;;;5446478;26;19952;-68
2024/04/10 03:40:16;;;;;;;;;;;7.50;99.90;;;;;;5448304;26;19935;-68
2024/04/10 03:42:42;;;;;;;;;;;7.40;99.90;;;;;;5437244;26;19925;-67
2024/04/10 03:45:08;;;;;;;;;;;7.40;99.90;;;;;;5413160;26;20362;-67
2024/04/10 03:47:34;;;;;;;;;;;7.40;99.90;;;;;;5413323;26;19933;-68
2024/04/10 03:49:59;;;;;;;;;;;7.30;99.90;;;;;;5412796;26;19925;-68
2024/04/10 03:52:25;;;;;;;;;;;7.30;99.90;;;;;;5414094;26;20644;-68
2024/04/10 03:54:50;;;;;;;;;;;7.20;99.90;;;;;;5412457;26;19972;-67
2024/04/10 03:57:16;;;;;;;;;;;7.00;99.90;;;;;;5412695;26;19932;-68
2024/04/10 03:59:42;;;;;;;;;;;7.00;99.90;;;;;;5439327;26;20483;-68
2024/04/10 04:02:07;;;;;;;;;;;6.80;99.90;;;;;;5448858;26;19925;-68
2024/04/10 04:04:33;;;;;;;;;;;6.80;99.90;;;;;;5447719;26;19931;-68
2024/04/10 04:06:58;;;;;;;;;;;6.90;99.90;;;;;;5449180;26;20300;-68
2024/04/10 04:09:23;;;;;;;;;;;7.00;99.90;;;;;;5447426;26;19993;-68
2024/04/10 04:11:49;;;;;;;;;;;6.90;99.90;;;;;;5434044;26;19925;-69
2024/04/10 04:14:15;;;;;;;;;;;6.90;99.90;;;;;;5412726;26;19933;-68
2024/04/10 04:16:40;;;;;;;;;;;6.80;99.90;;;;;;5381952;26;19939;-68
2024/04/10 04:19:06;;;;;;;;;;;6.80;99.90;;;;;;5413403;26;20577;-69
2024/04/10 04:21:31;;;;;;;;;;;6.80;99.90;;;;;;5413869;26;19966;-68
2024/04/10 04:24:00;;;;;;;;;;;6.70;99.90;;;;;;5413431;26;19932;-68
2024/04/10 04:26:25;;;;;;;;;;;6.70;99.90;;;;;;5419100;26;20355;-68
2024/04/10 04:28:54;;;;;;;;;;;6.70;99.90;;;;;;5449976;26;19931;-69
2024/04/10 04:31:19;;;;;;;;;;;6.80;99.90;;;;;;5448419;26;19924;-68
2024/04/10 04:33:45;;;;;;;;;;;6.60;99.90;;;;;;5447097;26;19931;-68
2024/04/10 04:36:11;;;;;;;;;;;6.50;99.90;;;;;;5449469;26;19936;-68
2024/04/10 04:38:37;;;;;;;;;;;6.50;99.90;;;;;;5436214;26;19967;-68
2024/04/10 04:41:03;;;;;;;;;;;6.50;99.90;;;;;;5412697;26;19925;-68
2024/04/10 04:43:28;;;;;;;;;;;6.60;99.90;;;;;;5434576;26;20401;-68
2024/04/10 04:45:54;;;;;;;;;;;6.60;99.90;;;;;;5438147;26;19971;-68
2024/04/10 04:48:20;;;;;;;;;;;6.70;99.90;;;;;;5412575;26;19932;-67
2024/04/10 04:50:46;;;;;;;;;;;6.60;99.90;;;;;;5412822;26;20375;-67
2024/04/10 04:53:12;;;;;;;;;;;6.60;99.90;;;;;;5423145;26;20370;-68
2024/04/10 04:55:38;;;;;;;;;;;6.60;99.90;;;;;;5436501;26;19926;-68
2024/04/10 04:58:04;;;;;;;;;;;6.60;99.90;;;;;;5449155;26;20519;-68
2024/04/10 05:00:30;;;;;;;;;;;6.60;99.90;;;;;;5446966;26;19924;-68
2024/04/10 05:02:56;;;;;;;;;;;6.60;99.90;;;;;;5416238;26;20010;-68
2024/04/10 05:05:22;;;;;;;;;;;6.60;99.90;;;;;;5414663;26;20155;-68
2024/04/10 05:07:48;;;;;;;;;;;6.60;99.90;;;;;;5438740;26;19932;-68
2024/04/10 05:10:14;;;;;;;;;;;6.70;99.90;;;;;;5447935;26;19924;-67
2024/04/10 05:12:41;;;;;;;;;;;6.70;99.90;;;;;;5446593;26;19989;-68
2024/04/10 05:15:07;;;;;;;;;;;6.70;99.90;;;;;;5448029;26;19956;-68
2024/04/10 05:17:33;;;;;;;;;;;6.70;99.90;;;;;;5446846;26;19936;-68
2024/04/10 05:19:58;;;;;;;;;;;6.70;99.90;;;;;;5448139;26;19993;-68
2024/04/10 05:22:24;;;;;;;;;;;6.70;99.90;;;;;;5447251;26;20476;-68
2024/04/10 05:24:49;;;;;;;;;;;6.70;99.90;;;;;;5446678;26;20269;-68
2024/04/10 05:27:23;;;;;;;;;;;6.70;99.90;;;;;;5447516;26;19924;-68
2024/04/10 05:29:59;;;;;;;;;;;6.70;99.90;;;;;;5446205;26;20514;-67
2024/04/10 05:32:28;;;;;;;;;;;6.70;99.90;;;;;;5446174;26;20436;-67
2024/04/10 05:34:54;;;;;;;;;;;6.70;99.90;;;;;;5409244;26;19953;-67
2024/04/10 05:37:20;;;;;;;;;;;6.80;99.90;;;;;;5414485;26;20458;-67
2024/04/10 05:39:47;;;;;;;;;;;6.80;99.90;;;;;;5411689;26;19936;-67
2024/04/10 05:42:13;;;;;;;;;;;6.80;99.90;;;;;;5418544;26;19931;-67
2024/04/10 05:44:38;;;;;;;;;;;6.90;99.90;;;;;;5448094;26;19929;-68
2024/04/10 05:47:04;;;;;;;;;;;6.90;99.90;;;;;;5424127;26;20262;-67
2024/04/10 05:49:30;;;;;;;;;;;7.00;99.90;;;;;;5379214;26;19925;-68
2024/04/10 05:51:55;;;;;;;;;;;7.00;99.90;;;;;;5410568;26;19925;-68
2024/04/10 05:54:21;;;;;;;;;;;7.60;99.90;;;;;;5410406;26;19932;-67
2024/04/10 05:56:46;;;;;;;;;;;9.20;99.90;;;;;;5410762;26;19957;-68
2024/04/10 05:59:12;;;;;;;;;;;10.30;99.90;;;;;;5410776;26;19957;-68
2024/04/10 06:01:38;;;;;;;;;;;10.70;99.80;;;;;;5409418;26;19953;-68
2024/04/10 06:04:03;;;;;;;;;;;10.40;99.90;;;;;;5410960;26;19924;-68
2024/04/10 06:06:29;;;;;;;;;;;10.20;99.90;;;;;;5411126;26;20376;-68
2024/04/10 06:08:54;;;;;;;;;;;9.90;99.90;;;;;;5379143;26;19925;-68
2024/04/10 06:11:20;;;;;;;;;;;9.60;99.90;;;;;;5411031;26;19933;-67
2024/04/10 06:13:49;;;;;;;;;;;9.20;99.90;;;;;;5422486;26;19933;-68
2024/04/10 06:16:15;;;;;;;;;;;9.50;99.90;;;;;;5438488;26;19931;-68
2024/04/10 06:18:41;;;;;;;;;;;10.10;99.90;;;;;;5416902;26;20350;-68
2024/04/10 06:21:07;;;;;;;;;;;11.20;98.80;;;;;;5446308;26;19932;-68
2024/04/10 06:23:33;;;;;;;;;;;11.50;96.50;;;;;;5426567;26;19925;-68
2024/04/10 06:25:58;;;;;;;;;;;11.60;95.80;;;;;;5446325;26;19992;-68
2024/04/10 06:28:25;;;;;;;;;;;11.80;95.60;;;;;;5409161;26;20001;-68
2024/04/10 06:30:57;;;;;;;;;;;11.70;94.40;;;;;;5438889;26;19924;-69
2024/04/10 06:33:22;;;;;;;;;;;10.90;96.20;;;;;;5441052;26;19939;-69
2024/04/10 06:35:48;;;;;;;;;;;10.50;98.00;;;;;;5444856;26;19924;-69
2024/04/10 06:38:13;;;;;;;;;;;10.80;98.30;;;;;;5423423;26;19994;-69
2024/04/10 06:40:39;;;;;;;;;;;11.90;94.80;;;;;;5438136;26;19925;-68
2024/04/10 06:43:04;;;;;;;;;;;12.10;93.10;;;;;;5432402;26;19932;-68
2024/04/10 06:45:30;;;;;;;;;;;12.30;92.90;;;;;;5446333;26;19936;-68
2024/04/10 06:47:55;;;;;;;;;;;12.90;90.50;;;;;;5430253;26;19925;-67
2024/04/10 06:50:21;;;;;;;;;;;12.30;91.10;;;;;;5443648;26;19931;-68
2024/04/10 06:52:46;;;;;;;;;;;12.10;92.20;;;;;;5445044;26;19924;-68
2024/04/10 06:55:11;;;;;;;;;;;11.80;92.70;;;;;;5413209;26;19924;-68
2024/04/10 06:57:37;;;;;;;;;;;12.10;92.50;;;;;;5426071;26;19925;-69
2024/04/10 07:00:12;;;;;;;;;;;11.80;92.80;;;;;;5419935;26;20286;-68
2024/04/10 07:02:44;;;;;;;;;;;11.90;93.30;;;;;;5426133;26;20340;-68
2024/04/10 07:05:10;;;;;;;;;;;11.30;92.80;;;;;;5414919;26;19948;-67
2024/04/10 07:07:37;;;;;;;;;;;11.40;93.90;;;;;;5421457;26;19932;-68
2024/04/10 07:10:05;;;;;;;;;;;11.50;93.20;;;;;;5430944;26;19937;-67
2024/04/10 07:12:32;;;;;;;;;;;11.60;93.10;;;;;;5396547;26;19935;-68
2024/04/10 07:14:58;;;;;;;;;;;11.70;92.50;;;;;;5435412;26;20026;-66
2024/04/10 07:17:24;;;;;;;;;;;12.10;92.30;;;;;;5432274;26;19925;-67
2024/04/10 07:19:50;;;;;;;;;;;13.80;87.50;;;;;;5398673;26;20371;-67
2024/04/10 07:22:15;;;;;;;;;;;13.80;87.10;;;;;;5444371;26;19932;-67
2024/04/10 07:24:41;;;;;;;;;;;13.40;86.50;;;;;;5432453;26;19925;-67
2024/04/10 07:27:07;;;;;;;;;;;12.60;88.90;;;;;;5388247;26;21187;-64
2024/04/10 07:29:35;;;;;;;;;;;11.90;91.70;;;;;;5419406;26;19997;-65
2024/04/10 07:32:02;;;;;;;;;;;11.40;92.50;;;;;;5404329;26;19928;-64
2024/04/10 07:34:27;;;;;;;;;;;11.40;92.90;;;;;;5436481;26;19925;-64
2024/04/10 07:36:53;;;;;;;;;;;13.30;90.70;;;;;;5451013;26;19924;-63
2024/04/10 07:39:19;;;;;;;;;;;15.70;82.80;;;;;;5451066;26;19931;-64
2024/04/10 07:41:44;;;;;;;;;;;16.10;79.20;;;;;;5417349;26;19978;-66
2024/04/10 07:44:10;;;;;;;;;;;14.30;80.40;;;;;;5448909;26;19948;-64
2024/04/10 07:46:36;;;;;;;;;;;15.50;78.20;;;;;;5439351;26;19925;-64
2024/04/10 07:49:02;;;;;;;;;;;16.30;76.40;;;;;;5430676;26;19937;-65
2024/04/10 07:51:28;;;;;;;;;;;15.00;79.40;;;;;;5434134;26;19925;-65
2024/04/10 07:53:53;;;;;;;;;;;15.60;78.00;;;;;;5417448;26;20119;-66
2024/04/10 07:56:19;;;;;;;;;;;14.50;80.70;;;;;;5411806;26;20382;-66
2024/04/10 07:58:44;;;;;;;;;;;13.50;82.40;;;;;;5420154;26;19932;-67
2024/04/10 08:01:11;;;;;;;;;;;13.20;84.20;;;;;;5408434;26;19951;-65
2024/04/10 08:03:36;;;;;;;;;;;14.70;81.20;;;;;;5439769;26;19925;-65
2024/04/10 08:06:06;;;;;;;;;;;17.30;72.00;;;;;;5401779;26;19925;-66
2024/04/10 08:08:32;;;;;;;;;;;18.40;67.30;;;;;;5440996;26;19924;-66
2024/04/10 08:11:04;;;;;;;;;;;19.00;65.40;;;;;;5424159;26;20487;-66
2024/04/10 08:13:31;;;;;;;;;;;20.80;63.70;;;;;;5399758;26;19929;-65
2024/04/10 08:15:58;;;;;;;;;;;20.40;62.30;;;;;;5337995;26;20439;-65
2024/04/10 08:18:25;;;;;;;;;;;18.80;64.20;;;;;;5336018;26;20536;-65
2024/04/10 08:20:58;;;;;;;;;;;17.50;69.80;;;;;;5333779;26;20498;-66
2024/04/10 08:23:24;;;;;;;;;;;17.30;67.60;;;;;;5324029;26;19927;-66
2024/04/10 08:25:50;;;;;;;;;;;18.10;66.10;;;;;;5329183;26;19934;-66
2024/04/10 08:28:17;;;;;;;;;;;18.80;66.30;;;;;;5340046;26;19926;-68
2024/04/10 08:30:43;;;;;;;;;;;20.10;63.80;;;;;;5334006;26;20026;-66
2024/04/10 08:33:08;;;;;;;;;;;21.30;62.80;;;;;;5317502;26;19927;-67
2024/04/10 08:35:34;;;;;;;;;;;21.00;60.60;;;;;;5307254;26;19997;-67
2024/04/10 08:37:59;;;;;;;;;;;21.70;58.60;;;;;;5324346;26;19933;-66
2024/04/10 08:40:25;;;;;;;;;;;22.00;58.80;;;;;;5308290;26;19989;-67
2024/04/10 08:42:52;;;;;;;;;;;22.90;56.20;;;;;;5311376;26;20380;-67
2024/04/10 08:45:19;;;;;;;;;;;23.30;56.60;;;;;;5356649;26;19940;-67
2024/04/10 08:47:45;;;;;;;;;;;23.00;55.20;;;;;;5321978;26;19930;-67
2024/04/10 08:50:11;;;;;;;;;;;21.40;57.40;;;;;;5325227;26;19954;-66
2024/04/10 08:52:37;;;;;;;;;;;23.20;55.60;;;;;;5320452;26;19934;-66
2024/04/10 08:55:05;;;;;;;;;;;23.30;53.50;;;;;;5338629;26;19932;-66
2024/04/10 08:57:30;;;;;;;;;;;23.20;55.90;;;;;;5342805;26;19926;-66
2024/04/10 08:59:56;;;;;;;;;;;22.90;56.30;;;;;;5341603;26;20033;-67
2024/04/10 09:02:22;;;;;;;;;;;22.70;56.60;;;;;;5338376;26;19942;-67
2024/04/10 09:04:47;;;;;;;;;;;22.60;58.20;;;;;;5319895;26;20539;-67
2024/04/10 09:07:17;;;;;;;;;;;23.00;55.90;;;;;;5306546;26;19930;-66
2024/04/10 09:09:42;;;;;;;;;;;23.40;54.20;;;;;;5307080;26;20491;-66
2024/04/10 09:12:08;;;;;;;;;;;23.90;55.30;;;;;;5310987;26;19933;-67
2024/04/10 09:14:34;;;;;;;;;;;22.40;57.40;;;;;;5316408;26;19941;-67
2024/04/10 09:17:03;;;;;;;;;;;24.00;55.40;;;;;;5320286;26;19927;-67
2024/04/10 09:19:29;;;;;;;;;;;21.10;54.50;;;;;;5323248;26;20368;-66
2024/04/10 09:21:55;;;;;;;;;;;20.70;58.30;;;;;;5322723;26;19933;-67
2024/04/10 09:24:25;;;;;;;;;;;22.70;54.70;;;;;;5308194;26;19926;-66
2024/04/10 09:26:51;;;;;;;;;;;25.10;54.20;;;;;;5307887;26;19934;-67
2024/04/10 09:29:24;;;;;;;;;;;25.00;53.30;;;;;;5316205;26;20690;-67
2024/04/10 09:31:50;;;;;;;;;;;24.60;53.10;;;;;;5335402;26;20007;-68
2024/04/10 09:34:20;;;;;;;;;;;24.70;52.80;;;;;;5329257;26;20364;-66
2024/04/10 09:36:46;;;;;;;;;;;24.20;54.30;;;;;;5327548;26;19926;-67
2024/04/10 09:39:12;;;;;;;;;;;24.20;53.60;;;;;;5315823;26;19934;-66
2024/04/10 09:41:39;;;;;;;;;;;20.70;56.50;;;;;;5315197;26;20087;-66
2024/04/10 09:44:07;;;;;;;;;;;19.70;57.50;;;;;;5323403;26;19995;-67
2024/04/10 09:46:36;;;;;;;;;;;21.50;56.00;;;;;;5327669;26;19938;-66
2024/04/10 09:49:11;;;;;;;;;;;22.80;55.80;;;;;;5316765;26;19934;-66
2024/04/10 09:51:37;;;;;;;;;;;20.10;59.30;;;;;;5330753;26;19926;-66
2024/04/10 09:54:04;;;;;;;;;;;21.30;57.50;;;;;;5330376;26;19926;-66
2024/04/10 09:58:07;;;;;;;;;;;22.30;55.00;;;;;;5511277;25;20380;-66
2024/04/10 10:00:34;;;;;;;;;;;23.40;54.20;;;;;;5495429;26;19935;-66
2024/04/10 10:03:06;;;;;;;;;;;21.00;56.90;;;;;;5469621;25;19929;-66
2024/04/10 10:05:32;;;;;;;;;;;20.40;56.70;;;;;;5471459;26;19936;-67
2024/04/10 10:08:27;;;;;;;;;;;20.00;56.30;;;;;;5497877;25;19928;-67
2024/04/10 10:10:53;;;;;;;;;;;20.40;57.20;;;;;;5487613;26;20629;-66
2024/04/10 10:13:28;;;;;;;;;;;19.50;55.40;;;;;;5493382;26;19936;-66
2024/04/10 10:16:00;;;;;;;;;;;17.20;58.30;;;;;;5496936;26;19938;-67
2024/04/10 10:18:27;;;;;;;;;;;19.90;58.30;;;;;;5500650;25;20254;-65
2024/04/10 10:21:05;;;;;;;;;;;19.60;56.80;;;;;;5501090;25;19939;-66
2024/04/10 10:23:33;;;;;;;;;;;20.80;57.80;;;;;;5495391;26;19977;-66
2024/04/10 10:26:00;;;;;;;;;;;21.40;57.00;;;;;;5496547;25;19928;-66
2024/04/10 10:28:25;;;;;;;;;;;20.10;58.00;;;;;;5498148;25;19935;-67
2024/04/10 10:30:51;;;;;;;;;;;20.70;58.80;;;;;;5498306;25;19935;-66
2024/04/10 10:33:20;;;;;;;;;;;20.80;57.40;;;;;;5497206;25;19935;-66
2024/04/10 10:35:45;;;;;;;;;;;21.00;55.20;;;;;;5491452;25;19993;-66
2024/04/10 10:38:11;;;;;;;;;;;20.90;57.00;;;;;;5493823;26;20319;-66
2024/04/10 10:40:37;;;;;;;;;;;20.60;56.80;;;;;;5498738;25;20343;-67
2024/04/10 10:43:03;;;;;;;;;;;21.30;55.90;;;;;;5496720;25;19956;-67
2024/04/10 10:45:32;;;;;;;;;;;20.50;55.60;;;;;;5498512;25;19943;-66
2024/04/10 10:47:59;;;;;;;;;;;20.50;57.70;;;;;;5500755;25;19928;-66
2024/04/10 10:50:24;;;;;;;;;;;19.40;56.90;;;;;;5499336;25;19928;-66
2024/04/10 10:52:50;;;;;;;;;;;19.20;56.10;;;;;;5500758;25;19935;-66
2024/04/10 10:55:16;;;;;;;;;;;18.70;57.40;;;;;;5501958;25;19928;-67
2024/04/10 10:57:42;;;;;;;;;;;18.00;58.50;;;;;;5503023;25;20309;-67
2024/04/10 11:00:15;;;;;;;;;;;18.00;58.90;;;;;;5502627;25;20090;-66
2024/04/10 11:02:43;;;;;;;;;;;17.40;60.70;;;;;;5502167;25;20212;-66
2024/04/10 11:05:12;;;;;;;;;;;16.80;61.50;;;;;;5501001;25;19939;-65
2024/04/10 11:07:41;;;;;;;;;;;16.80;62.00;;;;;;5494871;26;19927;-65
2024/04/10 11:10:11;;;;;;;;;;;16.60;61.40;;;;;;5484612;26;19928;-66
2024/04/10 11:12:37;;;;;;;;;;;16.30;62.10;;;;;;5484563;26;19927;-66
2024/04/10 11:15:12;;;;;;;;;;;16.20;63.60;;;;;;5485046;26;19927;-68
2024/04/10 11:17:38;;;;;;;;;;;16.20;65.00;;;;;;5481982;26;19981;-67
2024/04/10 11:20:06;;;;;;;;;;;16.10;63.10;;;;;;5485216;26;19929;-65
2024/04/10 11:22:32;;;;;;;;;;;15.80;63.30;;;;;;5485742;26;19927;-66
2024/04/10 11:24:58;;;;;;;;;;;16.20;64.50;;;;;;5481569;26;19943;-66
2024/04/10 11:27:23;;;;;;;;;;;16.40;63.70;;;;;;5479295;26;19928;-66
2024/04/10 11:29:50;;;;;;;;;;;16.00;62.60;;;;;;5460610;26;19929;-66
2024/04/10 11:32:16;;;;;;;;;;;15.80;63.30;;;;;;5468433;26;20017;-66
2024/04/10 11:34:41;;;;;;;;;;;16.00;64.40;;;;;;5482965;26;19928;-66
2024/04/10 11:37:07;;;;;;;;;;;16.20;65.10;;;;;;5483537;26;19935;-66
2024/04/10 11:39:33;;;;;;;;;;;16.30;61.50;;;;;;5486167;26;19938;-67
2024/04/10 11:41:58;;;;;;;;;;;16.50;64.30;;;;;;5485956;26;19932;-66
2024/04/10 11:44:25;;;;;;;;;;;16.90;62.70;;;;;;5485914;26;19927;-66
2024/04/10 11:46:51;;;;;;;;;;;17.10;60.70;;;;;;5485891;26;19928;-66
2024/04/10 11:49:17;;;;;;;;;;;17.10;60.70;;;;;;5484959;26;20000;-66
2024/04/10 11:51:43;;;;;;;;;;;17.10;59.50;;;;;;5484600;26;20543;-67
2024/04/10 11:54:08;;;;;;;;;;;16.80;59.00;;;;;;5484268;26;19928;-66
2024/04/10 11:56:34;;;;;;;;;;;17.10;61.10;;;;;;5484250;26;19936;-66
2024/04/10 11:58:59;;;;;;;;;;;17.10;60.50;;;;;;5484468;26;19940;-66
2024/04/10 12:01:25;;;;;;;;;;;16.80;60.30;;;;;;5483997;26;19939;-66
2024/04/10 12:03:50;;;;;;;;;;;16.60;61.10;;;;;;5483552;26;20399;-66
2024/04/10 12:06:16;;;;;;;;;;;16.00;61.90;;;;;;5484196;26;19935;-66
2024/04/10 12:08:43;;;;;;;;;;;15.80;64.50;;;;;;5483990;26;19928;-66
2024/04/10 12:11:09;;;;;;;;;;;16.00;63.90;;;;;;5484991;26;19931;-65
2024/04/10 12:13:40;;;;;;;;;;;16.20;62.40;;;;;;5484141;26;19928;-66
2024/04/10 12:16:06;;;;;;;;;;;16.20;61.40;;;;;;5482002;26;19935;-66
2024/04/10 12:18:31;;;;;;;;;;;16.70;60.60;;;;;;5484449;26;19935;-64
2024/04/10 12:20:57;;;;;;;;;;;17.30;63.60;;;;;;5482671;26;19956;-64
2024/04/10 12:23:23;;;;;;;;;;;17.40;61.30;;;;;;5484213;26;20015;-65
2024/04/10 12:25:49;;;;;;;;;;;17.30;60.00;;;;;;5484741;26;20381;-65
2024/04/10 12:28:15;;;;;;;;;;;17.30;59.90;;;;;;5482796;26;19939;-65
2024/04/10 12:30:40;;;;;;;;;;;17.00;58.10;;;;;;5481917;26;20698;-66
2024/04/10 12:33:06;;;;;;;;;;;16.80;60.00;;;;;;5474231;26;19935;-66
2024/04/10 12:38:16;;;;;;;;;;;16.80;59.30;;;;;;5467227;26;20603;-65
2024/04/10 12:40:42;;;;;;;;;;;16.50;57.40;;;;;;5470519;26;19927;-65
2024/04/10 12:43:09;;;;;;;;;;;16.20;58.90;;;;;;5469909;26;19927;-65
2024/04/10 12:45:34;;;;;;;;;;;16.70;58.90;;;;;;5484058;26;19956;-66
2024/04/10 12:48:01;;;;;;;;;;;16.90;60.10;;;;;;5464008;26;19996;-66
2024/04/10 12:50:26;;;;;;;;;;;17.10;59.70;;;;;;5476187;26;19932;-66
2024/04/10 12:52:52;;;;;;;;;;;17.00;58.50;;;;;;5473924;26;19938;-67
2024/04/10 12:55:17;;;;;;;;;;;16.70;58.60;;;;;;5480348;26;20014;-66
2024/04/10 12:57:44;;;;;;;;;;;16.60;59.30;;;;;;5471637;26;19928;-66
2024/04/10 13:00:11;;;;;;;;;;;15.80;58.70;;;;;;5477672;26;19942;-66
2024/04/10 13:02:37;;;;;;;;;;;16.00;59.80;;;;;;5466482;26;20662;-66
2024/04/10 13:05:03;;;;;;;;;;;16.10;58.60;;;;;;5479587;26;19940;-66
2024/04/10 13:07:29;;;;;;;;;;;15.90;59.80;;;;;;5464569;26;19940;-66
2024/04/10 13:09:54;;;;;;;;;;;15.70;59.00;;;;;;5466890;26;19997;-67
2024/04/10 13:12:20;;;;;;;;;;;15.60;59.60;;;;;;5471693;26;19928;-66
2024/04/10 13:14:46;;;;;;;;;;;15.60;60.90;;;;;;5462212;26;19956;-66
2024/04/10 13:17:12;;;;;;;;;;;15.30;58.80;;;;;;5468555;26;19928;-66
2024/04/10 13:19:38;;;;;;;;;;;15.30;58.90;;;;;;5479991;26;19936;-66
2024/04/10 13:22:04;;;;;;;;;;;15.50;60.40;;;;;;5476858;26;20480;-66
2024/04/10 13:24:31;;;;;;;;;;;15.70;60.20;;;;;;5475893;26;19934;-66
2024/04/10 13:26:56;;;;;;;;;;;15.90;60.80;;;;;;5474406;26;19945;-66
2024/04/10 13:29:22;;;;;;;;;;;16.40;59.00;;;;;;5471236;26;20621;-66
2024/04/10 13:31:47;;;;;;;;;;;16.10;57.20;;;;;;5469955;26;19934;-66
2024/04/10 13:34:13;;;;;;;;;;;15.40;57.60;;;;;;5477443;26;20030;-66
2024/04/10 13:36:39;;;;;;;;;;;15.80;59.10;;;;;;5468220;26;19994;-66
2024/04/10 13:39:04;;;;;;;;;;;16.10;57.20;;;;;;5474701;26;20395;-65
2024/04/10 13:41:31;;;;;;;;;;;16.00;58.00;;;;;;5473156;26;19928;-66
2024/04/10 13:43:58;;;;;;;;;;;16.20;58.10;;;;;;5463701;26;20010;-66
2024/04/10 13:46:24;;;;;;;;;;;16.20;59.00;;;;;;5464955;26;19928;-66
2024/04/10 13:48:50;;;;;;;;;;;16.30;57.00;;;;;;5465888;26;20358;-66
2024/04/10 13:51:19;;;;;;;;;;;16.30;58.40;;;;;;5457685;26;20282;-66
2024/04/10 13:53:44;;;;;;;;;;;16.20;58.60;;;;;;5464681;26;19961;-65
2024/04/10 13:56:11;;;;;;;;;;;16.20;59.30;;;;;;5465855;26;19928;-66
2024/04/10 13:58:37;;;;;;;;;;;16.20;58.20;;;;;;5471884;26;19939;-66
2024/04/10 14:01:09;;;;;;;;;;;15.70;58.10;;;;;;5475932;26;20251;-66
2024/04/10 14:03:34;;;;;;;;;;;15.40;57.90;;;;;;5475996;26;19939;-66
2024/04/10 14:06:03;;;;;;;;;;;15.60;59.30;;;;;;5471132;26;19937;-66
2024/04/10 14:08:30;;;;;;;;;;;15.90;58.70;;;;;;5461693;26;20341;-66
2024/04/10 14:11:04;;;;;;;;;;;16.10;58.00;;;;;;5461467;26;20286;-66
2024/04/10 14:13:30;;;;;;;;;;;16.10;58.00;;;;;;5465571;26;19940;-66
2024/04/10 14:15:56;;;;;;;;;;;15.90;56.40;;;;;;5472674;26;20741;-66
2024/04/10 14:18:22;;;;;;;;;;;15.80;56.60;;;;;;5479434;26;19935;-66
2024/04/10 14:20:47;;;;;;;;;;;15.70;56.00;;;;;;5461660;26;19933;-66
2024/04/10 14:23:13;;;;;;;;;;;15.50;57.10;;;;;;5464877;26;20000;-66